Terminal Aerodrome Forecast
Issued by NWS Wilmington, OH

Current Version | Previous Version | Text Only | Print | Product List | Glossary Off
Versions: 1 2 3 4 5 6 7 8 9 10 11 12 13 14 15 16

000
FTUS41 KILN 062340
TAFCMH
TAF
KCMH 062340Z 0700/0724 29012G18KT P6SM OVC012
     FM070700 28010KT P6SM OVC018
     FM070900 27007KT P6SM SCT200
     FM071300 24006KT P6SM BKN200
     FM072300 25007KT P6SM BKN150=

USA.gov is the U.S. government's official web portal to all federal, state and local government web resources and services.